createdAt,value
2023-03-21T00:00:30.138Z,12.90
2023-03-21T00:02:57.371Z,12.40
2023-03-21T00:05:24.547Z,12.80
2023-03-21T00:07:52.038Z,12.40
2023-03-21T00:10:33.063Z,12.80
2023-03-21T00:13:05.713Z,13.50
2023-03-21T00:15:44.078Z,13.50
2023-03-21T00:18:24.529Z,12.50
2023-03-21T00:21:35.531Z,12.40
2023-03-21T00:23:51.096Z,13.40
2023-03-21T00:26:18.253Z,12.40
2023-03-21T00:28:45.230Z,13.70
2023-03-21T00:31:13.060Z,12.40
2023-03-21T00:33:41.065Z,13.20
2023-03-21T00:36:16.069Z,12.40
2023-03-21T00:38:43.762Z,12.40
2023-03-21T00:41:25.810Z,12.40
2023-03-21T00:43:58.912Z,12.50
2023-03-21T00:46:39.864Z,13.20
2023-03-21T00:49:09.670Z,12.90
2023-03-21T00:51:36.767Z,12.50
2023-03-21T00:54:05.757Z,12.40
2023-03-21T00:56:33.068Z,12.40
2023-03-21T00:59:00.241Z,12.40
2023-03-21T01:01:32.039Z,12.40
2023-03-21T01:04:05.239Z,12.40
2023-03-21T01:06:39.531Z,12.40
2023-03-21T01:09:15.285Z,12.50
2023-03-21T01:11:44.375Z,12.40
2023-03-21T01:14:23.312Z,12.40
2023-03-21T01:16:54.267Z,12.40
2023-03-21T01:19:44.249Z,12.40
2023-03-21T01:22:15.631Z,12.40
2023-03-21T01:24:52.355Z,12.30
2023-03-21T01:27:22.607Z,12.30
2023-03-21T01:29:49.740Z,12.40
2023-03-21T01:32:17.156Z,12.40
2023-03-21T01:34:44.352Z,12.40
2023-03-21T01:37:11.743Z,12.70
2023-03-21T01:39:45.666Z,12.40
2023-03-21T01:42:15.583Z,12.40
2023-03-21T01:45:05.160Z,12.30
2023-03-21T01:47:46.595Z,12.40
2023-03-21T01:50:44.015Z,13.20
2023-03-21T01:53:30.174Z,12.30
2023-03-21T01:56:01.881Z,13.10
2023-03-21T01:58:57.597Z,13.30
2023-03-21T02:01:45.776Z,12.30
2023-03-21T02:04:14.707Z,12.30
2023-03-21T02:07:00.589Z,12.30
2023-03-21T02:09:42.186Z,12.40
2023-03-21T02:12:17.263Z,12.30
2023-03-21T02:14:49.322Z,12.30
2023-03-21T02:17:36.094Z,13.10
2023-03-21T02:20:43.594Z,12.30
2023-03-21T02:23:54.182Z,12.20
2023-03-21T02:26:40.857Z,12.20
2023-03-21T02:29:53.629Z,12.00
2023-03-21T02:33:31.593Z,12.20
2023-03-21T02:36:46.675Z,12.20
2023-03-21T02:39:32.965Z,12.20
2023-03-21T02:42:15.226Z,12.20
2023-03-21T02:44:54.424Z,13.40
2023-03-21T02:47:33.750Z,12.20
2023-03-21T02:50:33.754Z,12.20
2023-03-21T02:53:07.064Z,12.10
2023-03-21T02:55:37.645Z,12.40
2023-03-21T02:58:13.502Z,12.20
2023-03-21T03:00:55.400Z,12.90
2023-03-21T03:03:34.790Z,12.80
2023-03-21T03:06:17.786Z,12.10
2023-03-21T03:09:02.525Z,12.10
2023-03-21T03:11:40.033Z,12.10
2023-03-21T03:14:53.164Z,12.10
2023-03-21T03:17:39.498Z,12.10
2023-03-21T03:20:32.914Z,12.00
2023-03-21T03:23:21.445Z,12.00
2023-03-21T03:26:09.273Z,12.00
2023-03-21T03:28:44.587Z,12.00
2023-03-21T03:31:27.923Z,11.90
2023-03-21T03:34:08.322Z,11.90
2023-03-21T03:36:44.731Z,12.00
2023-03-21T03:39:16.927Z,12.30
2023-03-21T03:42:15.482Z,11.90
2023-03-21T03:44:54.191Z,11.80
2023-03-21T03:47:57.253Z,11.80
2023-03-21T03:50:51.053Z,11.80
2023-03-21T03:53:31.978Z,11.80
2023-03-21T03:56:01.500Z,11.80
2023-03-21T03:58:43.226Z,11.90
2023-03-21T04:01:14.298Z,11.90
2023-03-21T04:03:50.702Z,11.80
2023-03-21T04:06:22.087Z,11.80
2023-03-21T04:08:51.039Z,11.80
2023-03-21T04:11:18.484Z,11.80
2023-03-21T04:13:50.845Z,12.30
2023-03-21T04:16:23.412Z,11.80
2023-03-21T04:18:50.756Z,11.80
2023-03-21T04:21:19.236Z,12.40
2023-03-21T04:23:46.428Z,11.90
2023-03-21T04:26:14.295Z,11.80
2023-03-21T04:28:51.731Z,11.80
2023-03-21T04:31:57.146Z,11.90
2023-03-21T04:34:27.997Z,11.80
2023-03-21T04:36:58.357Z,12.90
2023-03-21T04:39:25.496Z,11.80
2023-03-21T04:41:52.657Z,13.10
2023-03-21T04:44:20.086Z,11.80
2023-03-21T04:46:47.125Z,12.80
2023-03-21T04:49:14.798Z,12.20
2023-03-21T04:51:45.187Z,12.40
2023-03-21T04:56:42.759Z,13.00
2023-03-21T04:59:14.521Z,11.90
2023-03-21T05:01:43.620Z,11.90
2023-03-21T05:04:13.471Z,11.90
2023-03-21T05:06:44.535Z,11.90
2023-03-21T05:09:12.777Z,11.90
2023-03-21T05:11:41.113Z,11.90
2023-03-21T05:14:16.604Z,13.00
2023-03-21T05:16:48.699Z,11.90
2023-03-21T05:19:17.486Z,11.90
2023-03-21T05:21:45.590Z,13.50
2023-03-21T05:24:21.080Z,12.10
2023-03-21T05:26:52.276Z,12.00
2023-03-21T05:29:22.542Z,12.00
2023-03-21T05:32:01.871Z,11.90
2023-03-21T05:34:29.657Z,12.00
2023-03-21T05:36:56.952Z,12.00
2023-03-21T05:39:26.808Z,12.00
2023-03-21T05:42:04.208Z,12.00
2023-03-21T05:44:31.422Z,12.00
2023-03-21T05:47:00.452Z,12.00
2023-03-21T05:49:37.192Z,12.00
2023-03-21T05:52:05.355Z,13.70
2023-03-21T05:54:32.333Z,12.00
2023-03-21T05:56:59.591Z,12.10
2023-03-21T05:59:45.950Z,12.10
2023-03-21T06:02:13.370Z,12.10
2023-03-21T06:04:41.376Z,12.10
2023-03-21T06:07:08.857Z,12.10
2023-03-21T06:09:41.185Z,12.10
2023-03-21T06:12:08.520Z,12.30
2023-03-21T06:14:58.131Z,12.10
2023-03-21T06:17:32.288Z,12.10
2023-03-21T06:20:07.574Z,12.10
2023-03-21T06:22:41.920Z,12.20
2023-03-21T06:25:09.652Z,12.20
2023-03-21T06:27:37.693Z,12.20
2023-03-21T06:30:08.384Z,12.30
2023-03-21T06:32:42.431Z,12.30
2023-03-21T06:35:13.573Z,12.30
2023-03-21T06:37:40.720Z,12.30
2023-03-21T06:40:09.681Z,12.30
2023-03-21T06:42:36.894Z,12.30
2023-03-21T06:45:10.637Z,12.30
2023-03-21T06:47:38.020Z,10.60
2023-03-21T06:50:11.113Z,13.30
2023-03-21T06:52:42.178Z,12.30
2023-03-21T06:55:10.030Z,12.30
2023-03-21T06:57:38.044Z,12.30
2023-03-21T07:00:09.646Z,12.30
2023-03-21T07:02:41.434Z,12.30
2023-03-21T07:05:20.345Z,12.30
2023-03-21T07:07:48.633Z,13.00
2023-03-21T07:10:16.042Z,12.30
2023-03-21T07:12:58.910Z,12.40
2023-03-21T07:15:38.309Z,12.40
2023-03-21T07:18:09.251Z,12.60
2023-03-21T07:20:38.037Z,12.40
2023-03-21T07:23:06.062Z,12.40
2023-03-21T07:25:33.698Z,12.40
2023-03-21T07:28:01.191Z,12.50
2023-03-21T07:30:28.388Z,12.50
2023-03-21T07:32:55.599Z,13.00
2023-03-21T07:35:22.765Z,13.00
2023-03-21T07:37:49.768Z,12.50
2023-03-21T07:40:18.583Z,12.50
2023-03-21T07:42:49.648Z,12.50
2023-03-21T07:45:26.956Z,12.50
2023-03-21T07:47:54.529Z,13.60
2023-03-21T07:50:21.769Z,12.50
2023-03-21T07:52:49.135Z,12.50
2023-03-21T07:55:17.336Z,12.90
2023-03-21T07:57:44.538Z,12.50
2023-03-21T08:00:14.464Z,12.50
2023-03-21T08:02:42.614Z,12.50
2023-03-21T08:05:11.521Z,12.60
2023-03-21T08:07:40.128Z,12.60
2023-03-21T08:10:08.300Z,12.60
2023-03-21T08:12:35.345Z,12.70
2023-03-21T08:15:02.336Z,12.70
2023-03-21T08:17:29.384Z,12.80
2023-03-21T08:19:56.430Z,12.80
2023-03-21T08:22:23.395Z,13.50
2023-03-21T08:24:50.521Z,12.80
2023-03-21T08:27:17.580Z,14.00
2023-03-21T08:29:44.650Z,12.90
2023-03-21T08:32:12.420Z,12.80
2023-03-21T08:34:39.454Z,13.80
2023-03-21T08:37:07.108Z,12.80
2023-03-21T08:39:34.004Z,12.90
2023-03-21T08:42:01.018Z,13.30
2023-03-21T08:44:27.963Z,12.80
2023-03-21T08:46:55.028Z,12.90
2023-03-21T08:49:21.945Z,13.80
2023-03-21T08:51:48.957Z,13.00
2023-03-21T08:54:23.533Z,13.00
2023-03-21T08:56:50.546Z,13.00
2023-03-21T08:59:17.554Z,14.10
2023-03-21T09:01:45.187Z,13.00
2023-03-21T09:04:12.411Z,13.10
2023-03-21T09:06:49.781Z,13.10
2023-03-21T09:09:16.765Z,13.20
2023-03-21T09:11:44.043Z,13.30
2023-03-21T09:14:11.824Z,13.30
2023-03-21T09:16:39.761Z,13.40
2023-03-21T09:19:08.597Z,13.40
2023-03-21T09:21:36.525Z,13.60
2023-03-21T09:24:06.195Z,13.60
2023-03-21T09:26:33.594Z,13.70
2023-03-21T09:29:01.039Z,13.80
2023-03-21T09:31:31.345Z,13.80
2023-03-21T09:33:58.889Z,13.90
2023-03-21T09:36:27.283Z,13.90
2023-03-21T09:38:56.948Z,14.00
2023-03-21T09:42:12.659Z,14.10
2023-03-21T09:45:01.740Z,14.10
2023-03-21T09:47:34.787Z,14.20
2023-03-21T09:50:20.677Z,14.50
2023-03-21T09:53:21.077Z,14.30
2023-03-21T09:55:48.324Z,14.40
2023-03-21T09:58:52.994Z,14.50
2023-03-21T10:01:32.856Z,14.50
2023-03-21T10:04:07.491Z,14.60
2023-03-21T10:06:42.842Z,15.50
2023-03-21T10:09:24.630Z,14.80
2023-03-21T10:12:01.802Z,14.80
2023-03-21T10:14:32.964Z,14.90
2023-03-21T10:17:27.952Z,15.40
2023-03-21T10:20:26.239Z,15.00
2023-03-21T10:22:57.518Z,15.10
2023-03-21T10:25:33.403Z,15.20
2023-03-21T10:28:04.433Z,15.30
2023-03-21T10:30:52.895Z,15.40
2023-03-21T10:33:42.725Z,15.50
2023-03-21T10:36:11.850Z,15.50
2023-03-21T10:38:49.165Z,15.60
2023-03-21T10:41:17.007Z,15.80
2023-03-21T10:43:45.845Z,15.90
2023-03-21T10:46:21.305Z,16.00
2023-03-21T10:48:53.875Z,16.20
2023-03-21T10:51:30.277Z,16.40
2023-03-21T10:54:08.467Z,16.40
2023-03-21T10:56:40.727Z,16.50
2023-03-21T10:59:19.449Z,16.60
2023-03-21T11:01:52.624Z,16.70
2023-03-21T11:04:26.652Z,16.80
2023-03-21T11:06:57.606Z,16.90
2023-03-21T11:09:42.672Z,17.00
2023-03-21T11:12:28.103Z,17.10
2023-03-21T11:14:55.364Z,17.20
2023-03-21T11:17:28.479Z,17.20
2023-03-21T11:20:10.635Z,17.40
2023-03-21T11:22:43.487Z,17.30
2023-03-21T11:25:22.340Z,17.40
2023-03-21T11:27:53.943Z,17.40
2023-03-21T11:30:26.547Z,17.40
2023-03-21T11:33:03.403Z,17.50
2023-03-21T11:35:38.988Z,17.60
2023-03-21T11:38:26.028Z,17.50
2023-03-21T11:40:58.314Z,17.50
2023-03-21T11:43:37.214Z,17.60
2023-03-21T11:46:14.892Z,17.70
2023-03-21T11:48:47.002Z,17.70
2023-03-21T11:51:41.742Z,17.90
2023-03-21T11:54:38.210Z,17.80
2023-03-21T11:57:48.323Z,17.80
2023-03-21T12:00:26.280Z,17.80
2023-03-21T12:03:47.441Z,17.90
2023-03-21T12:06:46.537Z,17.90
2023-03-21T12:09:45.923Z,18.00
2023-03-21T12:12:38.494Z,18.00
2023-03-21T12:15:29.393Z,18.10
2023-03-21T12:18:34.698Z,18.10
2023-03-21T12:21:33.415Z,19.80
2023-03-21T12:24:18.570Z,18.30
2023-03-21T12:27:12.803Z,18.50
2023-03-21T12:30:15.646Z,18.60
2023-03-21T12:32:58.418Z,18.70
2023-03-21T12:35:51.067Z,18.70
2023-03-21T12:38:28.217Z,18.70
2023-03-21T12:41:17.453Z,18.80
2023-03-21T12:44:00.571Z,18.80
2023-03-21T12:46:47.641Z,18.90
2023-03-21T12:49:35.934Z,18.90
2023-03-21T12:52:14.360Z,18.90
2023-03-21T12:55:11.480Z,18.80
2023-03-21T12:57:57.437Z,18.70
2023-03-21T13:00:43.528Z,18.60
2023-03-21T13:03:30.234Z,18.60
2023-03-21T13:06:13.103Z,18.50
2023-03-21T13:08:54.270Z,18.50
2023-03-21T13:11:29.224Z,18.60
2023-03-21T13:14:26.615Z,18.70
2023-03-21T13:17:31.213Z,18.90
2023-03-21T13:20:14.680Z,19.00
2023-03-21T13:22:41.619Z,19.20
2023-03-21T13:25:23.504Z,19.40
2023-03-21T13:28:30.258Z,19.50
2023-03-21T13:31:21.562Z,19.60
2023-03-21T13:33:51.845Z,19.70
2023-03-21T13:36:29.810Z,19.70
2023-03-21T13:39:05.612Z,19.80
2023-03-21T13:41:39.886Z,19.70
2023-03-21T13:44:41.382Z,19.70
2023-03-21T13:47:56.811Z,19.70
2023-03-21T13:50:50.425Z,19.70
2023-03-21T13:53:24.508Z,19.70
2023-03-21T13:56:12.504Z,19.80
2023-03-21T13:58:45.863Z,19.80
2023-03-21T14:01:30.265Z,19.90
2023-03-21T14:04:17.586Z,19.90
2023-03-21T14:07:02.053Z,20.00
2023-03-21T14:09:36.670Z,20.00
2023-03-21T14:12:09.387Z,19.90
2023-03-21T14:14:44.671Z,19.90
2023-03-21T14:17:26.532Z,19.90
2023-03-21T14:20:01.037Z,19.90
2023-03-21T14:22:29.806Z,19.80
2023-03-21T14:25:01.702Z,19.70
2023-03-21T14:27:34.246Z,19.70
2023-03-21T14:30:03.362Z,19.70
2023-03-21T14:32:31.162Z,19.60
2023-03-21T14:35:01.326Z,19.50
2023-03-21T14:37:38.373Z,19.40
2023-03-21T14:40:20.825Z,19.40
2023-03-21T14:42:49.782Z,19.30
2023-03-21T14:45:20.694Z,19.20
2023-03-21T14:48:12.009Z,19.10
2023-03-21T14:50:54.094Z,19.10
2023-03-21T14:53:29.883Z,19.10
2023-03-21T14:56:01.988Z,19.10
2023-03-21T14:58:34.178Z,19.10
2023-03-21T15:01:06.410Z,19.10
2023-03-21T15:03:34.728Z,19.00
2023-03-21T15:06:02.185Z,18.90
2023-03-21T15:08:29.772Z,18.80
2023-03-21T15:11:08.166Z,18.70
2023-03-21T15:13:54.800Z,18.60
2023-03-21T15:16:23.107Z,18.40
2023-03-21T15:18:51.455Z,18.30
2023-03-21T15:21:30.282Z,18.10
2023-03-21T15:24:13.829Z,18.10
2023-03-21T15:26:46.393Z,18.00
2023-03-21T15:29:16.417Z,17.90
2023-03-21T15:31:44.727Z,17.80
2023-03-21T15:34:28.729Z,17.80
2023-03-21T15:37:05.540Z,17.80
2023-03-21T15:39:36.073Z,17.90
2023-03-21T15:42:27.654Z,18.00
2023-03-21T15:45:00.750Z,18.20
2023-03-21T15:47:41.550Z,18.30
2023-03-21T15:50:23.883Z,18.50
2023-03-21T15:52:54.195Z,18.50
2023-03-21T15:55:39.388Z,18.60
2023-03-21T15:58:16.226Z,18.60
2023-03-21T16:00:52.206Z,18.60
2023-03-21T16:03:27.387Z,18.50
2023-03-21T16:06:14.289Z,18.50
2023-03-21T16:08:46.899Z,18.40
2023-03-21T16:11:18.979Z,18.20
2023-03-21T16:13:46.495Z,18.10
2023-03-21T16:16:28.603Z,18.00
2023-03-21T16:18:58.592Z,17.90
2023-03-21T16:21:30.259Z,17.70
2023-03-21T16:23:58.287Z,17.60
2023-03-21T16:26:41.606Z,17.50
2023-03-21T16:29:12.297Z,17.40
2023-03-21T16:31:39.400Z,17.30
2023-03-21T16:34:07.112Z,17.20
2023-03-21T16:36:38.116Z,17.10
2023-03-21T16:39:17.191Z,17.00
2023-03-21T16:41:44.784Z,16.90
2023-03-21T16:44:11.846Z,16.80
2023-03-21T16:46:39.076Z,16.70
2023-03-21T16:49:16.919Z,16.70
2023-03-21T16:51:44.102Z,16.60
2023-03-21T16:54:11.203Z,16.50
2023-03-21T16:56:44.019Z,16.40
2023-03-21T16:59:13.768Z,16.30
2023-03-21T17:01:42.424Z,16.20
2023-03-21T17:04:09.628Z,16.00
2023-03-21T17:06:54.495Z,15.90
2023-03-21T17:09:27.205Z,15.70
2023-03-21T17:11:54.146Z,15.60
2023-03-21T17:14:22.142Z,15.50
2023-03-21T17:16:50.118Z,15.40
2023-03-21T17:19:26.333Z,15.40
2023-03-21T17:21:53.614Z,15.30
2023-03-21T17:24:20.916Z,15.30
2023-03-21T17:26:47.875Z,15.20
2023-03-21T17:29:15.585Z,15.20
2023-03-21T17:31:43.903Z,15.20
2023-03-21T17:34:11.135Z,15.10
2023-03-21T17:36:42.136Z,15.10
2023-03-21T17:39:26.933Z,15.10
2023-03-21T17:41:54.458Z,15.10
2023-03-21T17:44:21.705Z,15.20
2023-03-21T17:46:51.580Z,15.10
2023-03-21T17:49:20.021Z,15.00
2023-03-21T17:51:47.222Z,15.10
2023-03-21T17:54:14.273Z,15.20
2023-03-21T17:56:42.084Z,14.90
2023-03-21T17:59:13.874Z,14.90
2023-03-21T18:01:42.060Z,14.90
2023-03-21T18:04:09.380Z,14.80
2023-03-21T18:06:37.449Z,14.80
2023-03-21T18:09:13.396Z,14.80
2023-03-21T18:11:41.106Z,14.80
2023-03-21T18:14:16.262Z,14.70
2023-03-21T18:16:45.502Z,14.70
2023-03-21T18:19:13.298Z,14.60
2023-03-21T18:21:41.110Z,15.10
2023-03-21T18:24:08.240Z,14.50
2023-03-21T18:26:35.577Z,14.90
2023-03-21T18:32:05.146Z,14.30
2023-03-21T18:34:32.957Z,14.20
2023-03-21T18:37:04.027Z,14.20
2023-03-21T18:39:33.308Z,14.20
2023-03-21T18:42:02.595Z,14.20
2023-03-21T18:44:37.530Z,14.20
2023-03-21T18:47:06.653Z,14.10
2023-03-21T18:52:21.356Z,14.70
2023-03-21T18:54:48.935Z,14.20
2023-03-21T18:57:35.682Z,14.10
2023-03-21T19:00:17.143Z,14.10
2023-03-21T19:02:50.560Z,13.10
2023-03-21T19:05:22.655Z,14.00
2023-03-21T19:07:51.723Z,14.10
2023-03-21T19:10:21.277Z,14.00
2023-03-21T19:12:53.427Z,14.00
2023-03-21T19:15:24.033Z,14.00
2023-03-21T19:20:46.867Z,14.00
2023-03-21T19:23:16.243Z,14.00
2023-03-21T19:25:44.413Z,14.00
2023-03-21T19:28:11.395Z,14.10
2023-03-21T19:30:39.243Z,14.00
2023-03-21T19:33:06.432Z,14.00
2023-03-21T19:35:37.322Z,14.00
2023-03-21T19:38:04.496Z,14.30
2023-03-21T19:40:32.123Z,14.00
2023-03-21T19:43:14.371Z,14.00
2023-03-21T19:45:49.409Z,14.10
2023-03-21T19:48:17.174Z,14.10
2023-03-21T19:51:20.098Z,14.10
2023-03-21T19:53:34.352Z,14.00
2023-03-21T19:56:03.853Z,14.10
2023-03-21T19:58:34.698Z,14.10
2023-03-21T20:01:01.747Z,14.10
2023-03-21T20:03:28.766Z,14.10
2023-03-21T20:06:09.804Z,14.00
2023-03-21T20:09:05.312Z,14.00
2023-03-21T20:11:24.454Z,14.00
2023-03-21T20:13:51.346Z,14.00
2023-03-21T20:16:18.492Z,14.00
2023-03-21T20:18:46.868Z,14.00
2023-03-21T20:21:17.930Z,14.00
2023-03-21T20:23:49.400Z,14.00
2023-03-21T20:26:17.606Z,14.90
2023-03-21T20:28:56.627Z,14.00
2023-03-21T20:31:33.126Z,14.00
2023-03-21T20:34:00.144Z,14.00
2023-03-21T20:36:43.771Z,14.80
2023-03-21T20:39:11.786Z,13.90
2023-03-21T20:41:39.472Z,13.90
2023-03-21T20:44:41.663Z,13.90
2023-03-21T20:46:53.870Z,13.80
2023-03-21T20:49:23.100Z,14.30
2023-03-21T20:52:46.243Z,13.60
2023-03-21T20:54:37.829Z,13.60
2023-03-21T20:57:05.398Z,13.50
2023-03-21T20:59:32.712Z,13.50
2023-03-21T21:02:00.207Z,14.50
2023-03-21T21:04:48.121Z,13.40
2023-03-21T21:07:21.972Z,13.40
2023-03-21T21:09:50.041Z,13.50
2023-03-21T21:12:19.465Z,13.50
2023-03-21T21:14:48.263Z,13.40
2023-03-21T21:20:17.620Z,13.40
2023-03-21T21:22:58.976Z,13.40
2023-03-21T21:25:30.453Z,14.10
2023-03-21T21:27:57.672Z,13.40
2023-03-21T21:30:24.943Z,13.40
2023-03-21T21:32:52.051Z,13.40
2023-03-21T21:35:20.710Z,14.30
2023-03-21T21:37:48.987Z,13.30
2023-03-21T21:40:20.393Z,13.30
2023-03-21T21:42:48.212Z,13.20
2023-03-21T21:45:16.078Z,13.10
2023-03-21T21:47:46.292Z,13.10
2023-03-21T21:50:14.298Z,14.40
2023-03-21T21:52:43.813Z,13.10
2023-03-21T21:55:13.317Z,13.00
2023-03-21T21:57:41.148Z,13.00
2023-03-21T22:00:13.571Z,13.00
2023-03-21T22:02:41.489Z,13.00
2023-03-21T22:05:09.568Z,13.00
2023-03-21T22:07:38.009Z,12.90
2023-03-21T22:10:06.616Z,12.90
2023-03-21T22:12:33.858Z,12.90
2023-03-21T22:15:01.165Z,12.90
2023-03-21T22:17:28.125Z,13.00
2023-03-21T22:20:05.241Z,12.80
2023-03-21T22:22:34.477Z,12.70
2023-03-21T22:25:01.978Z,12.60
2023-03-21T22:27:29.390Z,12.70
2023-03-21T22:29:56.416Z,13.30
2023-03-21T22:32:23.820Z,12.40
2023-03-21T22:34:50.847Z,13.00
2023-03-21T22:37:17.953Z,12.30
2023-03-21T22:39:44.856Z,12.40
2023-03-21T22:42:11.929Z,13.00
2023-03-21T22:44:38.892Z,12.20
2023-03-21T22:47:10.668Z,12.20
2023-03-21T22:49:40.092Z,12.20
2023-03-21T22:52:07.241Z,12.40
2023-03-21T22:54:34.573Z,12.00
2023-03-21T22:57:01.878Z,11.90
2023-03-21T22:59:29.147Z,11.90
2023-03-21T23:01:56.970Z,11.80
2023-03-21T23:04:26.734Z,13.00
2023-03-21T23:06:54.444Z,13.00
2023-03-21T23:09:21.399Z,11.90
2023-03-21T23:11:49.658Z,11.60
2023-03-21T23:14:21.671Z,11.50
2023-03-21T23:16:52.177Z,11.60
2023-03-21T23:19:21.799Z,12.30
2023-03-21T23:21:49.055Z,11.50
2023-03-21T23:24:16.213Z,12.20
2023-03-21T23:26:43.188Z,11.40
2023-03-21T23:29:11.882Z,11.40
2023-03-21T23:31:38.890Z,11.30
2023-03-21T23:34:07.130Z,11.30
2023-03-21T23:36:34.115Z,11.30
2023-03-21T23:39:01.147Z,11.20
2023-03-21T23:41:28.089Z,11.20
2023-03-21T23:43:55.151Z,11.30
2023-03-21T23:46:22.148Z,11.10
2023-03-21T23:48:49.669Z,11.10
2023-03-21T23:51:18.043Z,12.50
2023-03-21T23:53:46.500Z,11.00
2023-03-21T23:56:21.035Z,11.00
2023-03-21T23:58:49.977Z,10.90
